BAW674 EGKK-LTFM
Flight info
| Callsign | BAW674 |
|---|---|
| Flight time | N/A |
| Altitude | 33000 |
| Route | MIMFO Y312 DVR UL9 KONAN DCT KOK UL607 REMBA DCT LIRSU DCT LALMI DCT ABTAL DCT LATLO DCT OBEDI DCT BEDOX/N0460F350 DCT VBA DCT ETIDA T390 RILEX |
| Aircraft | B738/M-SDE2E3FGHIRWXY/LB1 |
Departure
| Time | 2026-04-16 15:59 |
|---|---|
| Airport | London Gatwick Airport (EGKK) |
Arrival
| Time | N/A |
|---|---|
| Airport | İstanbul Airport (LTFM) |
| Time | Latitude | Longitude | Altitude | Speed | Heading |
|---|---|---|---|---|---|
| 2026-04-16 15:12 | 51.15929 | -0.17975 | 204 ft | 0 kts | 78° |
| 2026-04-16 15:46 | 51.15928 | -0.17983 | 204 ft | 2 kts | 78° |
| 2026-04-16 15:46 | 51.15925 | -0.18010 | 204 ft | 3 kts | 78° |
| 2026-04-16 15:46 | 51.15923 | -0.18024 | 204 ft | 0 kts | 78° |
| 2026-04-16 15:47 | 51.15919 | -0.18056 | 204 ft | 6 kts | 88° |
| 2026-04-16 15:47 | 51.15935 | -0.18106 | 204 ft | 0 kts | 153° |
| 2026-04-16 15:47 | 51.15939 | -0.18109 | 204 ft | 0 kts | 168° |
| 2026-04-16 15:48 | 51.15939 | -0.18108 | 204 ft | 0 kts | 168° |
| 2026-04-16 15:50 | 51.15938 | -0.18108 | 204 ft | 0 kts | 168° |
| 2026-04-16 15:53 | 51.15937 | -0.18108 | 204 ft | 2 kts | 168° |
| 2026-04-16 15:53 | 51.15887 | -0.18092 | 204 ft | 10 kts | 168° |
| 2026-04-16 15:54 | 51.15809 | -0.18066 | 204 ft | 12 kts | 168° |
| 2026-04-16 15:54 | 51.15726 | -0.18037 | 204 ft | 13 kts | 163° |
| 2026-04-16 15:54 | 51.15701 | -0.17916 | 204 ft | 15 kts | 75° |
| 2026-04-16 15:54 | 51.15728 | -0.17727 | 204 ft | 18 kts | 78° |
| 2026-04-16 15:55 | 51.15749 | -0.17567 | 204 ft | 12 kts | 84° |
| 2026-04-16 15:55 | 51.15692 | -0.17485 | 204 ft | 11 kts | 162° |
| 2026-04-16 15:55 | 51.15622 | -0.17463 | 204 ft | 13 kts | 168° |
| 2026-04-16 15:55 | 51.15516 | -0.17426 | 204 ft | 18 kts | 167° |
| 2026-04-16 15:56 | 51.15405 | -0.17388 | 204 ft | 15 kts | 168° |
| 2026-04-16 15:56 | 51.15293 | -0.17349 | 204 ft | 13 kts | 167° |
| 2026-04-16 15:56 | 51.15219 | -0.17282 | 204 ft | 13 kts | 147° |
| 2026-04-16 15:56 | 51.15183 | -0.17161 | 204 ft | 12 kts | 79° |
| 2026-04-16 15:57 | 51.15203 | -0.17017 | 204 ft | 14 kts | 77° |
| 2026-04-16 15:57 | 51.15221 | -0.16878 | 204 ft | 13 kts | 89° |
| 2026-04-16 15:57 | 51.15161 | -0.16783 | 204 ft | 14 kts | 177° |
| 2026-04-16 15:57 | 51.15114 | -0.16847 | 204 ft | 0 kts | 259° |
| 2026-04-16 15:58 | 51.15113 | -0.16853 | 204 ft | 1 kts | 259° |
| 2026-04-16 15:58 | 51.15112 | -0.16861 | 204 ft | 1 kts | 259° |
| 2026-04-16 15:58 | 51.15091 | -0.17015 | 204 ft | 42 kts | 257° |
| 2026-04-16 15:58 | 51.14978 | -0.17840 | 204 ft | 108 kts | 257° |
| 2026-04-16 15:59 | 51.14522 | -0.21150 | 665 ft | 173 kts | 257° |
| 2026-04-16 15:59 | 51.14275 | -0.22994 | 1369 ft | 171 kts | 258° |
| 2026-04-16 15:59 | 51.14029 | -0.24887 | 1902 ft | 178 kts | 258° |
| 2026-04-16 16:00 | 51.13771 | -0.26889 | 2212 ft | 191 kts | 259° |
| 2026-04-16 16:00 | 51.13828 | -0.29065 | 2395 ft | 208 kts | 288° |
| 2026-04-16 16:00 | 51.14670 | -0.31014 | 2574 ft | 223 kts | 319° |
| 2026-04-16 16:00 | 51.16108 | -0.32087 | 2732 ft | 240 kts | 351° |
| 2026-04-16 16:01 | 51.17773 | -0.31642 | 2992 ft | 250 kts | 27° |
| 2026-04-16 16:01 | 51.18977 | -0.29691 | 3441 ft | 252 kts | 62° |
| 2026-04-16 16:01 | 51.19406 | -0.26975 | 3784 ft | 255 kts | 81° |
| 2026-04-16 16:01 | 51.19738 | -0.24180 | 3778 ft | 257 kts | 76° |
| 2026-04-16 16:02 | 51.20175 | -0.21428 | 3787 ft | 256 kts | 74° |
| 2026-04-16 16:02 | 51.20614 | -0.18716 | 3791 ft | 254 kts | 77° |
| 2026-04-16 16:02 | 51.20952 | -0.15921 | 3794 ft | 254 kts | 80° |
| 2026-04-16 16:02 | 51.21248 | -0.13161 | 4024 ft | 259 kts | 78° |
| 2026-04-16 16:03 | 51.21626 | -0.10331 | 4524 ft | 263 kts | 76° |
| 2026-04-16 16:03 | 51.22028 | -0.07447 | 5175 ft | 270 kts | 76° |
| 2026-04-16 16:03 | 51.22434 | -0.04438 | 5610 ft | 287 kts | 76° |
| 2026-04-16 16:03 | 51.22856 | -0.01236 | 5803 ft | 301 kts | 76° |
| 2026-04-16 16:04 | 51.23286 | 0.02077 | 5814 ft | 307 kts | 77° |
| 2026-04-16 16:04 | 51.23713 | 0.05403 | 5807 ft | 306 kts | 77° |
| 2026-04-16 16:04 | 51.24140 | 0.08738 | 5801 ft | 305 kts | 77° |
| 2026-04-16 16:04 | 51.24563 | 0.12051 | 5798 ft | 305 kts | 77° |
| 2026-04-16 16:05 | 51.24988 | 0.15371 | 5796 ft | 305 kts | 77° |
| 2026-04-16 16:05 | 51.25319 | 0.18713 | 5795 ft | 306 kts | 83° |
| 2026-04-16 16:05 | 51.25359 | 0.22119 | 5796 ft | 307 kts | 91° |
| 2026-04-16 16:05 | 51.25182 | 0.25514 | 5797 ft | 307 kts | 95° |
| 2026-04-16 16:06 | 51.24903 | 0.28893 | 5796 ft | 307 kts | 97° |
| 2026-04-16 16:06 | 51.24619 | 0.32277 | 5796 ft | 307 kts | 96° |
| 2026-04-16 16:06 | 51.24329 | 0.35663 | 5861 ft | 310 kts | 98° |
| 2026-04-16 16:06 | 51.24059 | 0.39080 | 5785 ft | 309 kts | 94° |
| 2026-04-16 16:07 | 51.23841 | 0.42476 | 5790 ft | 307 kts | 96° |
| 2026-04-16 16:07 | 51.23575 | 0.45855 | 5794 ft | 307 kts | 96° |
| 2026-04-16 16:07 | 51.23297 | 0.49240 | 5796 ft | 308 kts | 97° |
| 2026-04-16 16:07 | 51.23012 | 0.52654 | 6084 ft | 315 kts | 96° |
| 2026-04-16 16:08 | 51.22746 | 0.56145 | 6868 ft | 318 kts | 97° |
| 2026-04-16 16:08 | 51.22472 | 0.59666 | 7660 ft | 321 kts | 97° |
| 2026-04-16 16:08 | 51.22192 | 0.63207 | 8410 ft | 324 kts | 97° |
| 2026-04-16 16:08 | 51.21911 | 0.66736 | 9128 ft | 328 kts | 98° |
| 2026-04-16 16:09 | 51.21620 | 0.70359 | 9844 ft | 331 kts | 98° |
| 2026-04-16 16:09 | 51.21325 | 0.74022 | 10546 ft | 335 kts | 98° |
| 2026-04-16 16:09 | 51.21025 | 0.77730 | 11237 ft | 338 kts | 98° |
| 2026-04-16 16:09 | 51.20723 | 0.81462 | 11913 ft | 342 kts | 98° |
| 2026-04-16 16:10 | 51.20421 | 0.85247 | 12579 ft | 345 kts | 97° |
| 2026-04-16 16:10 | 51.20164 | 0.89067 | 13230 ft | 349 kts | 96° |
| 2026-04-16 16:10 | 51.19887 | 0.92929 | 13870 ft | 352 kts | 97° |
| 2026-04-16 16:10 | 51.19585 | 0.96811 | 14497 ft | 355 kts | 97° |
| 2026-04-16 16:11 | 51.19267 | 1.00751 | 15114 ft | 359 kts | 98° |
| 2026-04-16 16:11 | 51.18939 | 1.04713 | 15719 ft | 362 kts | 98° |
| 2026-04-16 16:11 | 51.18606 | 1.08701 | 16309 ft | 365 kts | 98° |
| 2026-04-16 16:11 | 51.18266 | 1.12733 | 16889 ft | 369 kts | 98° |
| 2026-04-16 16:12 | 51.17921 | 1.16809 | 17457 ft | 372 kts | 98° |
| 2026-04-16 16:12 | 51.17574 | 1.20900 | 18012 ft | 375 kts | 98° |
| 2026-04-16 16:12 | 51.17222 | 1.25037 | 18559 ft | 378 kts | 98° |
| 2026-04-16 16:12 | 51.16535 | 1.33135 | 19586 ft | 384 kts | 98° |
| 2026-04-16 16:13 | 51.16015 | 1.39572 | 20371 ft | 389 kts | 96° |
| 2026-04-16 16:13 | 51.15797 | 1.43880 | 20878 ft | 392 kts | 94° |
| 2026-04-16 16:13 | 51.15636 | 1.48172 | 21366 ft | 395 kts | 94° |
| 2026-04-16 16:13 | 51.15494 | 1.52613 | 21858 ft | 397 kts | 93° |
| 2026-04-16 16:14 | 51.15324 | 1.57011 | 22329 ft | 400 kts | 94° |
| 2026-04-16 16:14 | 51.15117 | 1.61456 | 22793 ft | 403 kts | 95° |
| 2026-04-16 16:14 | 51.14894 | 1.65930 | 23246 ft | 406 kts | 95° |
| 2026-04-16 16:14 | 51.14664 | 1.70414 | 23689 ft | 408 kts | 95° |
| 2026-04-16 16:15 | 51.14428 | 1.74933 | 24120 ft | 411 kts | 95° |
| 2026-04-16 16:15 | 51.14030 | 1.82489 | 24814 ft | 415 kts | 95° |
| 2026-04-16 16:15 | 51.13604 | 1.90497 | 25515 ft | 419 kts | 95° |
| 2026-04-16 16:15 | 51.13110 | 1.99817 | 26322 ft | 423 kts | 95° |
| 2026-04-16 16:16 | 51.12606 | 2.09177 | 27388 ft | 418 kts | 95° |
| 2026-04-16 16:16 | 51.12131 | 2.18307 | 28275 ft | 417 kts | 94° |
| 2026-04-16 16:16 | 51.11689 | 2.27503 | 29109 ft | 416 kts | 95° |
| 2026-04-16 16:16 | 51.11177 | 2.36523 | 29932 ft | 415 kts | 96° |
| 2026-04-16 16:17 | 51.10643 | 2.45663 | 30740 ft | 412 kts | 96° |
| 2026-04-16 16:17 | 51.10109 | 2.54773 | 31456 ft | 412 kts | 96° |
| 2026-04-16 16:17 | 51.09555 | 2.63790 | 32113 ft | 412 kts | 98° |
| 2026-04-16 16:17 | 51.08409 | 2.72682 | 32809 ft | 409 kts | 106° |
| 2026-04-16 16:18 | 51.06741 | 2.81467 | 32992 ft | 421 kts | 109° |
| 2026-04-16 16:18 | 51.04918 | 2.90481 | 33121 ft | 435 kts | 108° |
| 2026-04-16 16:18 | 51.02963 | 3.00852 | 33263 ft | 448 kts | 107° |
| 2026-04-16 16:19 | 51.01180 | 3.10455 | 33494 ft | 457 kts | 107° |
| 2026-04-16 16:19 | 51.00286 | 3.15308 | 33708 ft | 458 kts | 106° |
| 2026-04-16 16:19 | 50.99453 | 3.20200 | 33916 ft | 460 kts | 106° |
| 2026-04-16 16:20 | 50.98585 | 3.25097 | 34120 ft | 461 kts | 107° |
| 2026-04-16 16:20 | 50.97684 | 3.29983 | 34327 ft | 462 kts | 107° |
| 2026-04-16 16:20 | 50.96777 | 3.34824 | 34527 ft | 464 kts | 107° |
| 2026-04-16 16:20 | 50.95840 | 3.39789 | 34718 ft | 465 kts | 108° |
| 2026-04-16 16:21 | 50.94909 | 3.44702 | 34907 ft | 466 kts | 108° |
| 2026-04-16 16:21 | 50.93968 | 3.49656 | 34983 ft | 469 kts | 108° |
| 2026-04-16 16:21 | 50.92086 | 3.59560 | 34994 ft | 468 kts | 108° |
| 2026-04-16 16:22 | 50.90200 | 3.69395 | 34997 ft | 466 kts | 108° |
| 2026-04-16 16:22 | 50.88282 | 3.79215 | 34997 ft | 467 kts | 108° |
| 2026-04-16 16:23 | 50.86346 | 3.89077 | 34997 ft | 472 kts | 108° |
| 2026-04-16 16:23 | 50.84391 | 3.98990 | 34997 ft | 480 kts | 108° |
| 2026-04-16 16:24 | 50.82367 | 4.09219 | 34997 ft | 487 kts | 108° |
| 2026-04-16 16:24 | 50.80431 | 4.19556 | 34997 ft | 492 kts | 107° |
| 2026-04-16 16:25 | 50.78400 | 4.29888 | 34997 ft | 491 kts | 108° |
| 2026-04-16 16:25 | 50.76332 | 4.40166 | 34997 ft | 491 kts | 108° |
| 2026-04-16 16:26 | 50.74255 | 4.50434 | 34997 ft | 491 kts | 109° |
| 2026-04-16 16:26 | 50.72178 | 4.60707 | 34997 ft | 491 kts | 108° |
| 2026-04-16 16:27 | 50.70214 | 4.70959 | 34997 ft | 491 kts | 108° |
| 2026-04-16 16:27 | 50.68197 | 4.81246 | 34997 ft | 491 kts | 108° |
| 2026-04-16 16:28 | 50.66103 | 4.91495 | 34997 ft | 491 kts | 112° |
| 2026-04-16 16:28 | 50.63347 | 5.01323 | 34997 ft | 490 kts | 117° |
| 2026-04-16 16:29 | 50.60344 | 5.10939 | 34997 ft | 490 kts | 117° |
| 2026-04-16 16:29 | 50.57370 | 5.20583 | 34997 ft | 490 kts | 117° |
| 2026-04-16 16:30 | 50.54408 | 5.30230 | 34997 ft | 490 kts | 117° |
| 2026-04-16 16:30 | 50.51445 | 5.39869 | 34997 ft | 490 kts | 117° |
| 2026-04-16 16:31 | 50.48574 | 5.49476 | 34997 ft | 490 kts | 116° |
| 2026-04-16 16:31 | 50.45615 | 5.59210 | 34997 ft | 490 kts | 117° |
| 2026-04-16 16:32 | 50.42663 | 5.68821 | 34997 ft | 490 kts | 117° |
| 2026-04-16 16:32 | 50.39691 | 5.78439 | 34997 ft | 490 kts | 117° |
| 2026-04-16 16:33 | 50.37217 | 5.86416 | 34997 ft | 490 kts | 117° |
| 2026-04-16 16:33 | 50.34233 | 5.95998 | 34997 ft | 490 kts | 117° |
| 2026-04-16 16:34 | 50.31277 | 6.05599 | 34997 ft | 490 kts | 117° |
| 2026-04-16 16:34 | 50.28281 | 6.15173 | 34997 ft | 490 kts | 117° |
| 2026-04-16 16:35 | 50.25260 | 6.24699 | 34997 ft | 490 kts | 117° |
| 2026-04-16 16:35 | 50.22231 | 6.34216 | 34997 ft | 490 kts | 118° |
| 2026-04-16 16:36 | 50.19213 | 6.43686 | 34997 ft | 490 kts | 118° |
| 2026-04-16 16:36 | 50.16092 | 6.53130 | 34997 ft | 489 kts | 120° |
| 2026-04-16 16:37 | 50.12876 | 6.62469 | 34997 ft | 489 kts | 120° |
| 2026-04-16 16:37 | 50.11038 | 6.67812 | 34997 ft | 489 kts | 120° |
| 2026-04-16 16:38 | 50.10562 | 6.69194 | 34997 ft | 489 kts | 120° |
| 2026-04-16 16:38 | 50.07346 | 6.78534 | 34997 ft | 489 kts | 120° |
| 2026-04-16 16:39 | 50.04126 | 6.87858 | 34997 ft | 489 kts | 120° |
| 2026-04-16 16:39 | 50.00934 | 6.97219 | 34997 ft | 489 kts | 119° |
| 2026-04-16 16:40 | 49.97742 | 7.06637 | 34997 ft | 489 kts | 119° |
| 2026-04-16 16:40 | 49.94538 | 7.15959 | 34997 ft | 489 kts | 120° |
| 2026-04-16 16:41 | 49.91315 | 7.25269 | 34997 ft | 489 kts | 120° |
| 2026-04-16 16:41 | 49.88103 | 7.34497 | 34997 ft | 489 kts | 120° |
| 2026-04-16 16:42 | 49.84863 | 7.43769 | 34997 ft | 489 kts | 120° |
| 2026-04-16 16:42 | 49.81616 | 7.53028 | 34997 ft | 489 kts | 120° |
| 2026-04-16 16:43 | 49.78363 | 7.62269 | 34997 ft | 489 kts | 120° |
| 2026-04-16 16:43 | 49.75099 | 7.71508 | 34997 ft | 489 kts | 120° |
| 2026-04-16 16:44 | 49.71829 | 7.80731 | 34997 ft | 489 kts | 120° |
| 2026-04-16 16:44 | 49.68553 | 7.89941 | 34997 ft | 489 kts | 120° |
| 2026-04-16 16:45 | 49.65269 | 7.99136 | 34997 ft | 489 kts | 120° |
| 2026-04-16 16:45 | 49.61975 | 8.08330 | 34997 ft | 489 kts | 120° |
| 2026-04-16 16:46 | 49.58677 | 8.17502 | 34997 ft | 489 kts | 120° |
| 2026-04-16 16:46 | 49.55371 | 8.26664 | 34997 ft | 489 kts | 120° |
| 2026-04-16 16:47 | 49.52060 | 8.35807 | 34997 ft | 489 kts | 121° |
| 2026-04-16 16:47 | 49.48783 | 8.44949 | 34997 ft | 489 kts | 120° |
| 2026-04-16 16:48 | 49.45456 | 8.54092 | 34997 ft | 489 kts | 121° |
| 2026-04-16 16:48 | 49.42107 | 8.63193 | 34997 ft | 489 kts | 121° |
| 2026-04-16 16:49 | 49.38756 | 8.72267 | 34997 ft | 489 kts | 121° |
| 2026-04-16 16:49 | 49.35399 | 8.81346 | 34997 ft | 489 kts | 121° |
| 2026-04-16 16:50 | 49.32005 | 8.90367 | 34997 ft | 489 kts | 122° |
| 2026-04-16 16:50 | 49.28595 | 8.99303 | 34997 ft | 489 kts | 122° |
| 2026-04-16 16:51 | 49.24861 | 9.09062 | 34997 ft | 489 kts | 122° |
| 2026-04-16 16:51 | 49.21420 | 9.18028 | 34997 ft | 489 kts | 122° |
| 2026-04-16 16:52 | 49.17977 | 9.26974 | 34997 ft | 489 kts | 122° |
| 2026-04-16 16:52 | 49.14577 | 9.35984 | 34997 ft | 489 kts | 121° |
| 2026-04-16 16:53 | 49.11735 | 9.43435 | 34997 ft | 489 kts | 122° |
| 2026-04-16 16:53 | 49.08302 | 9.52352 | 34997 ft | 489 kts | 122° |
| 2026-04-16 16:54 | 49.04841 | 9.61297 | 34997 ft | 489 kts | 122° |
| 2026-04-16 16:54 | 49.01385 | 9.70223 | 34997 ft | 489 kts | 121° |
| 2026-04-16 16:55 | 48.97950 | 9.79139 | 34997 ft | 489 kts | 122° |
| 2026-04-16 16:55 | 48.94465 | 9.88015 | 34997 ft | 488 kts | 122° |
| 2026-04-16 16:56 | 48.90965 | 9.96881 | 34997 ft | 488 kts | 122° |
| 2026-04-16 16:56 | 48.87460 | 10.05742 | 34997 ft | 488 kts | 122° |
| 2026-04-16 16:57 | 48.81893 | 10.19465 | 34997 ft | 488 kts | 124° |
| 2026-04-16 16:58 | 48.78247 | 10.28157 | 34996 ft | 488 kts | 124° |
| 2026-04-16 16:58 | 48.75360 | 10.35035 | 34997 ft | 488 kts | 124° |
| 2026-04-16 16:59 | 48.74163 | 10.37882 | 34997 ft | 488 kts | 124° |
| 2026-04-16 16:59 | 48.70514 | 10.46552 | 34997 ft | 488 kts | 124° |
| 2026-04-16 17:00 | 48.66861 | 10.55217 | 34997 ft | 488 kts | 124° |
| 2026-04-16 17:00 | 48.63267 | 10.63937 | 34997 ft | 488 kts | 123° |
| 2026-04-16 17:01 | 48.59661 | 10.72569 | 34997 ft | 488 kts | 124° |
| 2026-04-16 17:01 | 48.56017 | 10.81217 | 34997 ft | 488 kts | 124° |
| 2026-04-16 17:02 | 48.52363 | 10.89844 | 34997 ft | 488 kts | 124° |